createdAt,value
2019-01-10T00:03:27.190Z,3.65
2019-01-10T00:08:29.202Z,4.22
2019-01-10T00:13:31.265Z,4.20
2019-01-10T00:18:33.237Z,4.30
2019-01-10T00:23:35.293Z,3.80
2019-01-10T00:28:37.321Z,4.30
2019-01-10T00:33:39.339Z,3.90
2019-01-10T00:38:41.377Z,4.17
2019-01-10T00:43:43.442Z,4.80
2019-01-10T00:48:45.747Z,4.33
2019-01-10T00:53:47.782Z,4.72
2019-01-10T00:58:49.793Z,4.12
2019-01-10T01:03:52.487Z,4.45
2019-01-10T01:08:54.487Z,4.08
2019-01-10T01:13:56.639Z,4.00
2019-01-10T01:18:58.654Z,4.08
2019-01-10T01:24:00.674Z,4.22
2019-01-10T01:29:02.677Z,4.62
2019-01-10T01:34:04.692Z,4.42
2019-01-10T01:39:07.512Z,4.53
2019-01-10T01:44:09.542Z,4.40
2019-01-10T01:49:11.595Z,4.65
2019-01-10T01:54:13.632Z,4.65
2019-01-10T01:59:15.658Z,4.60
2019-01-10T02:04:17.724Z,4.42
2019-01-10T02:09:19.740Z,4.47
2019-01-10T02:14:21.791Z,4.60
2019-01-10T02:19:23.780Z,4.22
2019-01-10T02:24:25.805Z,4.97
2019-01-10T02:29:28.091Z,4.35
2019-01-10T02:34:30.308Z,4.80
2019-01-10T02:39:32.568Z,4.80
2019-01-10T02:44:34.591Z,4.58
2019-01-10T02:49:36.609Z,4.60
2019-01-10T02:54:38.609Z,4.15
2019-01-10T02:59:40.619Z,4.45
2019-01-10T03:04:42.678Z,4.45
2019-01-10T03:09:44.730Z,4.28
2019-01-10T03:14:46.812Z,4.12
2019-01-10T03:19:48.836Z,4.30
2019-01-10T03:24:50.921Z,4.58
2019-01-10T03:29:52.955Z,4.55
2019-01-10T03:34:54.980Z,4.40
2019-01-10T03:39:56.993Z,4.10
2019-01-10T03:44:59.015Z,4.53
2019-01-10T03:50:01.036Z,4.08
2019-01-10T03:55:03.440Z,4.35
2019-01-10T04:00:08.942Z,4.95
2019-01-10T04:05:11.440Z,4.33
2019-01-10T04:10:13.993Z,5.08
2019-01-10T04:15:16.259Z,4.12
2019-01-10T04:20:18.445Z,3.77
2019-01-10T04:25:20.490Z,4.95
2019-01-10T04:30:22.546Z,4.50
2019-01-10T04:35:24.569Z,4.37
2019-01-10T04:40:26.523Z,4.70
2019-01-10T04:45:28.520Z,5.05
2019-01-10T04:50:30.739Z,5.78
2019-01-10T04:55:32.776Z,5.15
2019-01-10T05:00:34.779Z,5.08
2019-01-10T05:05:36.813Z,5.33
2019-01-10T05:10:38.873Z,6.47
2019-01-10T05:15:40.963Z,5.55
2019-01-10T05:20:42.976Z,5.60
2019-01-10T05:25:44.984Z,5.45
2019-01-10T05:30:47.018Z,5.40
2019-01-10T05:35:49.485Z,5.35
2019-01-10T05:40:52.242Z,5.65
2019-01-10T05:45:54.338Z,5.60
2019-01-10T05:50:57.278Z,6.42
2019-01-10T05:55:59.300Z,5.90
2019-01-10T06:01:02.511Z,6.20
2019-01-10T06:06:04.629Z,5.90
2019-01-10T06:11:06.681Z,5.30
2019-01-10T06:16:08.720Z,4.83
2019-01-10T06:21:10.729Z,5.47
2019-01-10T06:26:12.732Z,4.72
2019-01-10T06:31:14.859Z,5.70
2019-01-10T06:36:16.914Z,4.67
2019-01-10T06:41:18.903Z,5.12
2019-01-10T06:46:20.891Z,5.47
2019-01-10T06:51:22.951Z,6.05
2019-01-10T06:56:25.036Z,6.17
2019-01-10T07:01:27.090Z,5.90
2019-01-10T07:06:29.312Z,6.10
2019-01-10T07:11:31.570Z,5.85
2019-01-10T07:16:33.573Z,5.40
2019-01-10T07:21:58.971Z,5.62
2019-01-10T07:27:01.010Z,6.45
2019-01-10T07:32:03.146Z,5.45
2019-01-10T07:37:12.696Z,5.20
2019-01-10T07:42:09.376Z,5.17
2019-01-10T07:47:11.414Z,4.90
2019-01-10T07:52:13.622Z,4.83
2019-01-10T07:57:15.702Z,4.50
2019-01-10T08:02:17.703Z,4.72
2019-01-10T08:07:19.991Z,4.72
2019-01-10T08:12:22.071Z,3.87
2019-01-10T08:17:24.107Z,4.12
2019-01-10T08:22:28.046Z,4.00
2019-01-10T08:27:30.214Z,4.30
2019-01-10T08:32:32.244Z,4.58
2019-01-10T08:37:34.251Z,5.20
2019-01-10T08:42:36.307Z,4.92
2019-01-10T08:47:38.299Z,4.45
2019-01-10T08:52:40.331Z,5.10
2019-01-10T08:57:42.313Z,5.85
2019-01-10T09:02:44.350Z,5.37
2019-01-10T09:07:46.363Z,5.12
2019-01-10T09:12:48.508Z,4.97
2019-01-10T09:17:50.546Z,5.35
2019-01-10T09:22:52.537Z,5.60
2019-01-10T09:27:54.835Z,5.45
2019-01-10T09:32:56.834Z,5.53
2019-01-10T09:37:59.233Z,5.60
2019-01-10T09:43:01.492Z,5.08
2019-01-10T09:48:03.518Z,5.78
2019-01-10T09:53:05.497Z,5.30
2019-01-10T09:58:07.505Z,5.47
2019-01-10T10:03:10.377Z,4.78
2019-01-10T10:08:12.410Z,4.75
2019-01-10T10:13:15.252Z,4.90
2019-01-10T10:18:17.363Z,4.75
2019-01-10T10:23:26.803Z,4.60
2019-01-10T10:28:23.324Z,4.95
2019-01-10T10:33:25.321Z,3.80
2019-01-10T10:38:27.329Z,3.80
2019-01-10T10:43:29.389Z,3.95
2019-01-10T10:48:31.403Z,3.52
2019-01-10T10:53:33.647Z,4.28
2019-01-10T10:58:35.674Z,4.65
2019-01-10T11:03:39.674Z,4.15
2019-01-10T11:08:41.694Z,4.22
2019-01-10T11:13:43.879Z,4.60
2019-01-10T11:18:45.926Z,4.45
2019-01-10T11:23:47.939Z,4.28
2019-01-10T11:28:49.996Z,4.53
2019-01-10T11:33:52.323Z,4.53
2019-01-10T11:38:54.345Z,4.70
2019-01-10T11:43:57.667Z,5.00
2019-01-10T11:48:59.676Z,4.78
2019-01-10T11:54:01.689Z,4.60
2019-01-10T11:59:03.670Z,4.53
2019-01-10T12:04:05.720Z,4.28
2019-01-10T12:09:07.784Z,4.78
2019-01-10T12:14:09.799Z,5.00
2019-01-10T12:19:11.859Z,4.35
2019-01-10T12:24:15.721Z,5.25
2019-01-10T12:29:17.757Z,4.78
2019-01-10T12:34:19.791Z,5.40
2019-01-10T12:39:21.795Z,5.65
2019-01-10T12:44:23.851Z,4.40
2019-01-10T12:49:25.949Z,4.60
2019-01-10T12:54:27.934Z,5.17
2019-01-10T12:59:29.976Z,4.85
2019-01-10T13:04:33.980Z,4.97
2019-01-10T13:09:35.954Z,4.72
2019-01-10T13:14:38.020Z,4.62
2019-01-10T13:19:40.055Z,4.70
2019-01-10T13:24:44.156Z,4.60
2019-01-10T13:29:45.935Z,4.60
2019-01-10T13:34:47.874Z,5.05
2019-01-10T13:39:49.895Z,4.50
2019-01-10T13:44:51.842Z,4.83
2019-01-10T13:49:53.848Z,5.03
2019-01-10T13:54:55.952Z,5.03
2019-01-10T13:59:58.092Z,4.90
2019-01-10T14:05:00.240Z,5.30
2019-01-10T14:10:02.897Z,4.45
2019-01-10T14:15:06.802Z,4.60
2019-01-10T14:20:09.117Z,4.20
2019-01-10T14:25:11.225Z,4.20
2019-01-10T14:30:37.856Z,4.65
2019-01-10T14:35:39.907Z,3.85
2019-01-10T14:40:41.948Z,4.22
2019-01-10T14:45:44.067Z,4.17
2019-01-10T14:50:46.383Z,3.83
2019-01-10T14:55:49.526Z,3.77
2019-01-10T15:00:52.573Z,3.62
2019-01-10T15:05:54.844Z,3.70
2019-01-10T15:10:57.087Z,2.98
2019-01-10T15:15:59.035Z,3.30
2019-01-10T15:21:01.082Z,2.98
2019-01-10T15:26:03.208Z,3.12
2019-01-10T15:31:05.201Z,3.35
2019-01-10T15:36:07.238Z,3.47
2019-01-10T15:41:09.731Z,4.50
2019-01-10T15:46:11.901Z,4.67
2019-01-10T15:51:13.948Z,4.83
2019-01-10T15:56:15.969Z,5.25
2019-01-10T16:01:18.003Z,6.50
2019-01-10T16:06:20.012Z,4.87
2019-01-10T16:11:22.048Z,4.40
2019-01-10T16:16:24.366Z,4.65
2019-01-10T16:21:26.487Z,4.45
2019-01-10T16:26:29.603Z,4.97
2019-01-10T16:31:31.604Z,6.47
2019-01-10T16:36:33.879Z,4.75
2019-01-10T16:41:35.962Z,4.72
2019-01-10T16:51:54.286Z,4.58
2019-01-10T16:56:56.257Z,4.72
2019-01-10T17:01:58.257Z,4.97
2019-01-10T17:07:00.270Z,5.03
2019-01-10T17:12:02.361Z,4.67
2019-01-10T17:17:04.432Z,5.20
2019-01-10T17:22:06.553Z,4.67
2019-01-10T17:27:08.751Z,4.70
2019-01-10T17:32:10.795Z,4.80
2019-01-10T17:37:12.858Z,4.67
2019-01-10T17:42:15.548Z,4.53
2019-01-10T17:47:17.945Z,4.53
2019-01-10T17:52:25.058Z,4.97
2019-01-10T17:57:24.247Z,4.90
2019-01-10T18:02:26.547Z,4.95
2019-01-10T18:07:28.878Z,5.35
2019-01-10T18:12:30.914Z,5.37
2019-01-10T18:17:33.179Z,4.85
2019-01-10T18:22:35.239Z,4.87
2019-01-10T18:27:37.231Z,5.03
2019-01-10T18:32:39.263Z,4.78
2019-01-10T18:37:41.359Z,5.42
2019-01-10T18:48:12.754Z,5.22
2019-01-10T18:53:14.880Z,5.00
2019-01-10T18:58:16.911Z,5.60
2019-01-10T19:03:18.977Z,5.12
2019-01-10T19:08:21.059Z,4.95
2019-01-10T19:13:23.079Z,5.08
2019-01-10T19:18:25.130Z,5.25
2019-01-10T19:23:27.443Z,5.05
2019-01-10T19:28:29.437Z,5.40
2019-01-10T19:33:31.558Z,5.22
2019-01-10T19:38:34.262Z,5.28
2019-01-10T19:43:36.611Z,4.95
2019-01-10T19:48:38.651Z,5.50
2019-01-10T19:53:40.668Z,5.08
2019-01-10T19:58:42.697Z,6.08
2019-01-10T20:03:44.837Z,5.28
2019-01-10T20:08:46.855Z,5.80
2019-01-10T20:13:48.969Z,5.40
2019-01-10T20:18:51.000Z,5.08
2019-01-10T20:23:53.087Z,5.10
2019-01-10T20:28:55.117Z,5.60
2019-01-10T20:33:57.099Z,5.08
2019-01-10T20:38:59.160Z,5.40
2019-01-10T20:44:01.430Z,5.28
2019-01-10T20:49:03.585Z,5.83
2019-01-10T20:54:05.634Z,6.08
2019-01-10T20:59:08.164Z,5.85
2019-01-10T21:04:10.250Z,5.70
2019-01-10T21:09:13.082Z,5.92
2019-01-10T21:14:16.516Z,6.33
2019-01-10T21:19:18.574Z,5.00
2019-01-10T21:24:20.600Z,4.92
2019-01-10T21:29:22.704Z,4.75
2019-01-10T21:34:24.750Z,4.85
2019-01-10T21:39:26.839Z,4.45
2019-01-10T21:44:29.052Z,4.40
2019-01-10T21:49:31.880Z,4.85
2019-01-10T21:54:37.656Z,5.37
2019-01-10T22:04:52.158Z,9.50
2019-01-10T22:09:54.745Z,7.22
2019-01-10T22:14:56.811Z,7.42
2019-01-10T22:19:58.860Z,6.45
2019-01-10T22:25:01.139Z,5.45
2019-01-10T22:30:25.034Z,5.58
2019-01-10T22:35:27.376Z,5.78
2019-01-10T22:40:29.474Z,5.65
2019-01-10T22:45:31.569Z,6.67
2019-01-10T22:50:33.640Z,5.65
2019-01-10T22:55:36.043Z,6.47
2019-01-10T23:01:21.074Z,6.25
2019-01-10T23:06:23.212Z,6.37
2019-01-10T23:11:25.319Z,6.30
2019-01-10T23:17:08.599Z,6.40
2019-01-10T23:22:12.595Z,6.12
2019-01-10T23:27:14.633Z,5.55
2019-01-10T23:32:57.448Z,6.72
2019-01-10T23:38:08.272Z,6.00
2019-01-10T23:43:10.309Z,6.53
2019-01-10T23:48:12.334Z,6.33
2019-01-10T23:53:14.369Z,7.25
2019-01-10T23:58:16.575Z,7.28
